Goutum, Netherlands
Current Conditions -  °F | °C
As of 3:25 PM on Wednesday 28 Jan 2015 (Local Time) from EHLW Reporting Station
Moderate Rain Moderate Rain  
Wind Chill: 34°   Ceiling: 500
Heat Index: 43°   Visibility: 4mi
Dew Point: 41°   Wind: 23mph
Humidity: 93%   Direction: 210°SSW
Pressure: 29.21"   Gusts: 36mph
Location:  53.18°N, 5.8°E
Report Text: EHLW 281425Z AUTO 21020G31KT 7000 DZRA BKN005 OVC006 06/05 Q0989 YLO 22025G35KT 3000 SHRA SCT006 BKN008
Loading
Personal Weather Stations






























Interactive Weather Map New forecast layout! Learn more

10-Day Weather Forecast

Advertisements
Track Severe Weather on mobile